Range Regional Airport

Airport
ICAO code: 
KHIB
Summary
ICAO Region: 
NAM
Territory: 
Location: 
Hibbing, Minnesota,
Elevation: 
1354 ft
Coordinates: 
Aerial View: 
47° 23' 11" N, 92° 50' 20" W
Airport CFIT: 
Altimeter Temperature Error Correction
Airport GND: 
Aircraft Ground De/Anti Icing
Airport RE: 
Landing on Contaminated Runways
Metar
Observation
KHIB 021553Z AUTO 32017KT 10SM BKN024 OVC029 M01/M04 A2983 RMK AO2 SLP116 T10061044
Station
Hibbing, Chisholm-Hibbing Airport
Date/Time
2021-12-02 15:53:00
Wind direction
320°
Wind speed
17 kts
Lowest cloud amount
broken clouds
Temperature
-0.6°C
Dew point
-4.4°C
Humidity
75%
Weather condition
n/a

Description

Range Regional Airport is a public use airport located 7 km southeast of the central business district of Hibbing, in St. Louis County, Minnesota.

Climatology

Humid Continental climate (Köppen climate classification Dfb) - Variable weather patterns and a large seasonal temperature variance. Summers are often warm and humid with frequent thunderstorms and winters can be very cold with frequent snowfall and persistent snow cover.

Runways

Designator Length Width Surface Rops
4/22 937 23 ASP Yes/Yes
13/31 2060 46 ASP Yes/Yes
Airport map: 
Aerial View: 

SKYbrary Partners:

Safety knowledge contributed by: